createdAt,value
2022-12-25T00:02:22.609Z,14.70
2022-12-25T00:04:53.824Z,15.57
2022-12-25T00:07:22.466Z,15.07
2022-12-25T00:09:50.857Z,14.30
2022-12-25T00:12:22.564Z,14.43
2022-12-25T00:14:51.051Z,15.13
2022-12-25T00:17:20.623Z,14.87
2022-12-25T00:19:50.572Z,16.17
2022-12-25T00:22:19.422Z,15.83
2022-12-25T00:24:51.808Z,17.13
2022-12-25T00:27:20.503Z,17.07
2022-12-25T00:29:48.865Z,18.73
2022-12-25T00:32:22.719Z,18.70
2022-12-25T00:34:52.444Z,19.27
2022-12-25T00:37:28.471Z,20.10
2022-12-25T00:39:58.463Z,19.40
2022-12-25T00:42:28.675Z,21.43
2022-12-25T00:44:57.230Z,20.27
2022-12-25T00:47:27.790Z,21.50
2022-12-25T00:49:56.797Z,21.37
2022-12-25T00:52:25.606Z,20.77
2022-12-25T00:54:55.034Z,20.77
2022-12-25T00:57:23.329Z,21.90
2022-12-25T00:59:52.020Z,19.90
2022-12-25T01:02:27.737Z,21.67
2022-12-25T01:05:00.879Z,22.70
2022-12-25T01:07:29.666Z,21.63
2022-12-25T01:10:19.842Z,22.57
2022-12-25T01:12:51.295Z,22.70
2022-12-25T01:15:20.428Z,22.90
2022-12-25T01:17:51.344Z,23.07
2022-12-25T01:20:21.253Z,21.80
2022-12-25T01:22:49.452Z,22.37
2022-12-25T01:25:17.628Z,22.23
2022-12-25T01:27:46.010Z,21.83
2022-12-25T01:30:15.683Z,22.83
2022-12-25T01:32:44.349Z,21.80
2022-12-25T01:35:13.004Z,21.57
2022-12-25T01:37:42.978Z,21.03
2022-12-25T01:40:12.394Z,19.17
2022-12-25T01:42:41.008Z,19.53
2022-12-25T01:45:40.183Z,21.27
2022-12-25T01:48:14.665Z,19.97
2022-12-25T01:50:46.438Z,19.07
2022-12-25T01:53:16.314Z,20.13
2022-12-25T01:55:47.086Z,19.47
2022-12-25T01:58:15.774Z,20.30
2022-12-25T02:00:45.432Z,18.33
2022-12-25T02:03:14.428Z,19.53
2022-12-25T02:05:42.816Z,18.07
2022-12-25T02:08:13.533Z,18.93
2022-12-25T02:10:46.605Z,17.60
2022-12-25T02:13:19.716Z,17.60
2022-12-25T02:16:00.680Z,17.73
2022-12-25T02:18:39.495Z,18.90
2022-12-25T02:21:38.957Z,17.67
2022-12-25T02:24:44.036Z,17.93
2022-12-25T02:27:34.587Z,17.67
2022-12-25T02:30:10.446Z,18.13
2022-12-25T02:32:46.828Z,18.77
2022-12-25T02:35:20.900Z,18.57
2022-12-25T02:37:56.412Z,19.53
2022-12-25T02:40:29.662Z,20.87
2022-12-25T02:43:19.783Z,19.87
2022-12-25T02:46:10.832Z,20.50
2022-12-25T02:49:00.811Z,21.50
2022-12-25T02:51:50.651Z,22.53
2022-12-25T02:54:40.734Z,23.70
2022-12-25T02:57:30.005Z,22.53
2022-12-25T03:00:19.695Z,23.83
2022-12-25T03:03:07.675Z,25.77
2022-12-25T03:05:57.236Z,25.00
2022-12-25T03:08:31.817Z,24.70
2022-12-25T03:11:22.194Z,25.43
2022-12-25T03:13:53.791Z,25.93
2022-12-25T03:16:40.047Z,23.67
2022-12-25T03:19:23.842Z,24.43
2022-12-25T03:22:09.682Z,25.57
2022-12-25T03:24:55.496Z,24.53
2022-12-25T03:27:23.976Z,26.93
2022-12-25T03:30:11.923Z,26.43
2022-12-25T03:32:44.893Z,27.00
2022-12-25T03:35:25.951Z,26.20
2022-12-25T03:38:37.541Z,26.27
2022-12-25T03:41:37.369Z,25.13
2022-12-25T03:44:29.610Z,27.57
2022-12-25T03:47:24.518Z,26.67
2022-12-25T03:50:18.893Z,26.27
2022-12-25T03:53:11.709Z,26.77
2022-12-25T03:55:55.366Z,26.60
2022-12-25T03:58:45.877Z,26.33
2022-12-25T04:01:33.171Z,27.60
2022-12-25T04:04:19.101Z,26.80
2022-12-25T04:07:04.363Z,27.07
2022-12-25T04:09:51.358Z,26.57
2022-12-25T04:12:37.136Z,28.23
2022-12-25T04:15:23.042Z,25.97
2022-12-25T04:18:10.880Z,26.10
2022-12-25T04:20:56.123Z,25.70
2022-12-25T04:23:43.153Z,24.53
2022-12-25T04:26:30.258Z,21.53
2022-12-25T04:29:17.900Z,20.27
2022-12-25T04:32:02.811Z,18.20
2022-12-25T04:34:48.411Z,16.77
2022-12-25T04:37:16.885Z,16.60
2022-12-25T04:39:45.183Z,17.17
2022-12-25T04:42:15.079Z,16.00
2022-12-25T04:44:43.479Z,17.20
2022-12-25T04:47:11.984Z,15.43
2022-12-25T04:49:40.536Z,17.30
2022-12-25T04:52:09.186Z,17.03
2022-12-25T04:54:39.219Z,17.47
2022-12-25T04:57:09.050Z,16.73
2022-12-25T04:59:38.901Z,16.10
2022-12-25T05:02:07.404Z,14.67
2022-12-25T05:04:36.053Z,14.87
2022-12-25T05:07:06.747Z,16.10
2022-12-25T05:09:36.741Z,15.70
2022-12-25T05:12:05.376Z,14.80
2022-12-25T05:14:35.022Z,15.53
2022-12-25T05:17:08.022Z,16.53
2022-12-25T05:19:36.837Z,16.77
2022-12-25T05:22:05.486Z,15.90
2022-12-25T05:24:38.417Z,17.73
2022-12-25T05:27:06.655Z,17.10
2022-12-25T05:29:37.306Z,16.97
2022-12-25T05:32:07.701Z,17.07
2022-12-25T05:34:36.120Z,17.27
2022-12-25T05:37:04.563Z,17.70
2022-12-25T05:39:33.240Z,17.07
2022-12-25T05:42:01.753Z,15.97
2022-12-25T05:44:33.621Z,16.53
2022-12-25T05:47:02.024Z,16.33
2022-12-25T05:49:31.992Z,16.83
2022-12-25T05:52:00.351Z,15.80
2022-12-25T05:54:31.081Z,16.40
2022-12-25T05:57:00.499Z,14.27
2022-12-25T05:59:30.645Z,14.17
2022-12-25T06:02:00.870Z,15.20
2022-12-25T06:04:29.237Z,13.93
2022-12-25T06:07:00.304Z,14.07
2022-12-25T06:09:28.866Z,13.37
2022-12-25T06:12:00.317Z,14.53
2022-12-25T06:14:29.852Z,13.53
2022-12-25T06:16:58.297Z,12.87
2022-12-25T06:19:26.593Z,13.50
2022-12-25T06:21:55.335Z,12.67
2022-12-25T06:24:25.459Z,12.93
2022-12-25T06:26:54.678Z,11.77
2022-12-25T06:29:32.352Z,12.07
2022-12-25T06:32:01.582Z,11.80
2022-12-25T06:34:30.121Z,12.00
2022-12-25T06:37:01.940Z,11.80
2022-12-25T06:39:32.172Z,12.40
2022-12-25T06:42:00.714Z,11.67
2022-12-25T06:44:31.324Z,12.77
2022-12-25T06:46:59.764Z,11.23
2022-12-25T06:49:28.568Z,11.80
2022-12-25T06:51:57.180Z,12.00
2022-12-25T06:54:25.637Z,11.97
2022-12-25T06:56:56.976Z,11.17
2022-12-25T06:59:25.672Z,10.77
2022-12-25T07:01:56.320Z,12.13
2022-12-25T07:04:32.243Z,12.50
2022-12-25T07:07:09.296Z,11.63
2022-12-25T07:09:39.377Z,10.80
2022-12-25T07:12:21.371Z,10.43
2022-12-25T07:14:50.367Z,10.20
2022-12-25T07:17:19.573Z,10.23
2022-12-25T07:19:48.923Z,10.13
2022-12-25T07:22:18.142Z,9.10
2022-12-25T07:24:46.205Z,10.83
2022-12-25T07:27:16.625Z,9.70
2022-12-25T07:29:45.064Z,9.17
2022-12-25T07:32:16.430Z,9.27
2022-12-25T07:34:46.115Z,10.20
2022-12-25T07:37:14.920Z,8.80
2022-12-25T07:39:43.327Z,9.73
2022-12-25T07:42:18.068Z,8.73
2022-12-25T07:44:53.729Z,9.03
2022-12-25T07:47:22.135Z,8.87
2022-12-25T07:49:51.503Z,7.80
2022-12-25T07:52:21.128Z,7.63
2022-12-25T07:54:49.651Z,7.93
2022-12-25T07:57:19.367Z,8.33
2022-12-25T07:59:48.203Z,7.53
2022-12-25T08:02:18.449Z,7.33
2022-12-25T08:04:47.287Z,7.83
2022-12-25T08:07:18.126Z,7.73
2022-12-25T08:09:46.661Z,7.03
2022-12-25T08:12:15.389Z,7.87
2022-12-25T08:14:44.025Z,7.57
2022-12-25T08:17:12.463Z,7.80
2022-12-25T08:19:42.785Z,8.07
2022-12-25T08:22:13.918Z,7.43
2022-12-25T08:24:48.395Z,7.43
2022-12-25T08:27:17.283Z,7.57
2022-12-25T08:29:47.710Z,7.07
2022-12-25T08:32:20.026Z,7.47
2022-12-25T08:34:52.985Z,6.37
2022-12-25T08:37:24.426Z,7.17
2022-12-25T08:39:55.069Z,7.00
2022-12-25T08:42:28.709Z,6.63
2022-12-25T08:44:57.161Z,6.27
2022-12-25T08:47:31.312Z,6.83
2022-12-25T08:50:04.176Z,6.50
2022-12-25T08:52:39.403Z,6.50
2022-12-25T08:55:12.319Z,7.33
2022-12-25T08:57:47.230Z,6.60
2022-12-25T09:00:21.954Z,6.37
2022-12-25T09:02:54.021Z,6.30
2022-12-25T09:05:27.144Z,6.03
2022-12-25T09:08:05.775Z,6.20
2022-12-25T09:10:41.430Z,6.00
2022-12-25T09:15:58.965Z,7.50
2022-12-25T09:18:31.383Z,5.80
2022-12-25T09:21:15.896Z,6.23
2022-12-25T09:23:46.891Z,6.13
2022-12-25T09:26:23.146Z,6.77
2022-12-25T09:28:52.840Z,7.00
2022-12-25T09:31:23.882Z,6.10
2022-12-25T09:33:52.942Z,5.70
2022-12-25T09:36:26.070Z,5.63
2022-12-25T09:38:55.018Z,6.13
2022-12-25T09:41:31.718Z,6.47
2022-12-25T09:44:06.301Z,6.33
2022-12-25T09:46:42.354Z,5.73
2022-12-25T09:49:21.510Z,7.17
2022-12-25T09:51:59.579Z,6.40
2022-12-25T09:54:43.333Z,6.17
2022-12-25T09:57:13.810Z,5.73
2022-12-25T09:59:44.387Z,5.50
2022-12-25T10:02:37.535Z,5.77
2022-12-25T10:05:27.700Z,5.40
2022-12-25T10:08:07.987Z,5.57
2022-12-25T10:11:04.245Z,5.57
2022-12-25T10:13:54.865Z,5.20
2022-12-25T10:16:33.238Z,5.50
2022-12-25T10:19:17.047Z,5.63
2022-12-25T10:21:49.654Z,5.20
2022-12-25T10:24:34.752Z,5.87
2022-12-25T10:27:09.937Z,5.77
2022-12-25T10:29:43.819Z,5.70
2022-12-25T10:32:14.845Z,6.37
2022-12-25T10:34:46.628Z,6.00
2022-12-25T10:37:15.020Z,6.00
2022-12-25T10:39:56.646Z,6.10
2022-12-25T10:42:42.496Z,6.27
2022-12-25T10:45:11.839Z,5.57
2022-12-25T10:47:43.425Z,5.80
2022-12-25T10:50:19.712Z,7.30
2022-12-25T10:52:59.960Z,6.70
2022-12-25T10:55:35.771Z,5.93
2022-12-25T10:58:04.383Z,6.60
2022-12-25T11:00:35.005Z,6.73
2022-12-25T11:03:05.628Z,6.10
2022-12-25T11:05:39.116Z,5.83
2022-12-25T11:08:26.935Z,5.80
2022-12-25T11:11:00.097Z,5.90
2022-12-25T11:13:31.113Z,6.07
2022-12-25T11:16:11.067Z,5.40
2022-12-25T11:18:47.988Z,5.93
2022-12-25T11:21:20.508Z,5.93
2022-12-25T11:23:52.949Z,5.77
2022-12-25T11:26:22.872Z,6.10
2022-12-25T11:28:54.056Z,6.80
2022-12-25T11:31:24.981Z,6.53
2022-12-25T11:33:56.607Z,6.93
2022-12-25T11:36:31.756Z,5.90
2022-12-25T11:39:09.441Z,5.53
2022-12-25T11:41:44.183Z,5.57
2022-12-25T11:44:30.238Z,6.33
2022-12-25T11:47:05.356Z,6.27
2022-12-25T11:49:40.190Z,5.40
2022-12-25T11:52:13.914Z,5.10
2022-12-25T11:54:49.321Z,7.87
2022-12-25T11:57:19.662Z,10.07
2022-12-25T11:59:57.065Z,6.37
2022-12-25T12:02:34.685Z,5.27
2022-12-25T12:05:10.938Z,5.67
2022-12-25T12:07:44.021Z,6.27
2022-12-25T12:10:19.946Z,6.27
2022-12-25T12:12:59.127Z,6.43
2022-12-25T12:15:31.321Z,6.13
2022-12-25T12:18:10.736Z,5.93
2022-12-25T12:20:40.012Z,5.90
2022-12-25T12:23:16.832Z,6.93
2022-12-25T12:25:51.088Z,5.90
2022-12-25T12:28:34.527Z,6.00
2022-12-25T12:31:08.109Z,11.07
2022-12-25T12:33:40.658Z,7.47
2022-12-25T12:36:17.349Z,6.83
2022-12-25T12:38:46.337Z,6.10
2022-12-25T12:41:16.497Z,6.20
2022-12-25T12:43:56.517Z,6.50
2022-12-25T12:46:31.300Z,6.13
2022-12-25T12:49:12.382Z,5.60
2022-12-25T12:51:41.441Z,6.00
2022-12-25T12:54:20.854Z,6.60
2022-12-25T12:57:00.297Z,5.93
2022-12-25T12:59:43.730Z,6.40
2022-12-25T13:02:45.718Z,6.23
2022-12-25T13:05:21.683Z,6.10
2022-12-25T13:07:59.720Z,5.93
2022-12-25T13:10:34.192Z,6.23
2022-12-25T13:13:06.355Z,5.40
2022-12-25T13:15:37.753Z,5.53
2022-12-25T13:18:09.088Z,5.13
2022-12-25T13:20:47.004Z,5.40
2022-12-25T13:23:26.706Z,4.97
2022-12-25T13:25:56.432Z,4.70
2022-12-25T13:28:29.767Z,4.23
2022-12-25T13:31:09.119Z,4.50
2022-12-25T13:33:39.434Z,4.90
2022-12-25T13:36:14.351Z,4.43
2022-12-25T13:38:49.414Z,4.07
2022-12-25T13:41:38.504Z,4.20
2022-12-25T13:44:18.683Z,3.97
2022-12-25T13:46:55.298Z,4.10
2022-12-25T13:49:25.795Z,4.33
2022-12-25T13:51:55.236Z,4.37
2022-12-25T13:54:28.276Z,4.20
2022-12-25T13:57:04.697Z,4.60
2022-12-25T13:59:33.453Z,3.93
2022-12-25T14:02:05.611Z,4.63
2022-12-25T14:04:45.786Z,4.10
2022-12-25T14:07:23.425Z,4.20
2022-12-25T14:09:59.428Z,4.63
2022-12-25T14:12:30.511Z,4.40
2022-12-25T14:15:02.856Z,4.10
2022-12-25T14:17:35.208Z,4.40
2022-12-25T14:20:08.656Z,4.30
2022-12-25T14:22:38.747Z,4.33
2022-12-25T14:25:16.930Z,4.93
2022-12-25T14:27:50.764Z,4.40
2022-12-25T14:30:19.876Z,4.30
2022-12-25T14:32:52.467Z,4.30
2022-12-25T14:35:23.727Z,5.30
2022-12-25T14:38:00.326Z,4.70
2022-12-25T14:40:31.961Z,4.60
2022-12-25T14:43:05.698Z,4.53
2022-12-25T14:45:39.654Z,4.70
2022-12-25T14:48:27.512Z,4.53
2022-12-25T14:51:00.884Z,4.90
2022-12-25T14:53:37.466Z,4.10
2022-12-25T14:56:10.945Z,4.40
2022-12-25T14:58:48.584Z,4.40
2022-12-25T15:01:23.718Z,4.83
2022-12-25T15:03:54.055Z,4.23
2022-12-25T15:06:26.236Z,4.63
2022-12-25T15:09:00.534Z,4.57
2022-12-25T15:11:33.236Z,4.00
2022-12-25T15:14:06.537Z,4.10
2022-12-25T15:16:43.121Z,4.67
2022-12-25T15:19:23.404Z,4.83
2022-12-25T15:21:56.343Z,4.60
2022-12-25T15:24:25.042Z,4.80
2022-12-25T15:26:56.115Z,4.90
2022-12-25T15:29:59.739Z,5.13
2022-12-25T15:32:18.743Z,5.00
2022-12-25T15:34:50.241Z,5.50
2022-12-25T15:37:19.963Z,5.30
2022-12-25T15:39:49.508Z,5.33
2022-12-25T15:42:20.879Z,5.33
2022-12-25T15:44:49.495Z,6.47
2022-12-25T15:47:23.234Z,6.10
2022-12-25T15:49:53.679Z,6.93
2022-12-25T15:52:22.586Z,9.67
2022-12-25T15:54:51.087Z,5.10
2022-12-25T15:57:22.326Z,5.67
2022-12-25T15:59:50.986Z,5.30
2022-12-25T16:02:21.447Z,6.43
2022-12-25T16:04:55.946Z,5.43
2022-12-25T16:07:26.075Z,5.40
2022-12-25T16:09:55.838Z,5.47
2022-12-25T16:12:25.218Z,5.20
2022-12-25T16:14:53.590Z,5.50
2022-12-25T16:17:23.399Z,5.63
2022-12-25T16:19:51.565Z,6.07
2022-12-25T16:22:25.749Z,5.73
2022-12-25T16:24:56.080Z,6.30
2022-12-25T16:27:26.012Z,6.67
2022-12-25T16:29:54.361Z,6.07
2022-12-25T16:32:23.067Z,7.00
2022-12-25T16:34:51.781Z,6.67
2022-12-25T16:37:22.979Z,6.70
2022-12-25T16:39:51.286Z,7.23
2022-12-25T16:42:19.809Z,6.67
2022-12-25T16:44:48.221Z,7.13
2022-12-25T16:47:18.091Z,7.20
2022-12-25T16:49:46.889Z,6.67
2022-12-25T16:52:15.718Z,6.83
2022-12-25T16:54:46.645Z,7.03
2022-12-25T16:57:16.970Z,7.23
2022-12-25T16:59:49.531Z,7.30
2022-12-25T17:02:21.141Z,7.23
2022-12-25T17:04:50.521Z,8.17
2022-12-25T17:07:19.336Z,12.20
2022-12-25T17:09:51.633Z,7.67
2022-12-25T17:12:20.263Z,7.63
2022-12-25T17:14:48.994Z,6.80
2022-12-25T17:17:21.630Z,7.73
2022-12-25T17:19:50.936Z,6.93
2022-12-25T17:22:21.809Z,7.27
2022-12-25T17:24:51.851Z,7.20
2022-12-25T17:27:19.933Z,6.90
2022-12-25T17:29:49.737Z,7.17
2022-12-25T17:32:17.853Z,7.50
2022-12-25T17:34:46.728Z,7.20
2022-12-25T17:37:16.541Z,7.43
2022-12-25T17:39:44.932Z,7.87
2022-12-25T17:42:15.005Z,7.57
2022-12-25T17:44:45.484Z,7.53
2022-12-25T17:47:13.978Z,7.87
2022-12-25T17:49:42.619Z,7.73
2022-12-25T17:52:11.241Z,8.10
2022-12-25T17:54:43.145Z,7.87
2022-12-25T17:57:11.785Z,8.57
2022-12-25T17:59:44.287Z,8.07
2022-12-25T18:02:14.107Z,8.40
2022-12-25T18:04:42.655Z,8.67
2022-12-25T18:07:12.658Z,8.23
2022-12-25T18:09:41.184Z,8.40
2022-12-25T18:12:09.760Z,8.57
2022-12-25T18:14:38.440Z,8.37
2022-12-25T18:17:10.710Z,9.13
2022-12-25T18:19:41.715Z,8.50
2022-12-25T18:22:11.176Z,8.47
2022-12-25T18:24:40.041Z,8.60
2022-12-25T18:27:09.715Z,8.33
2022-12-25T18:29:38.769Z,8.80
2022-12-25T18:32:12.297Z,8.70
2022-12-25T18:34:41.344Z,8.80
2022-12-25T18:37:09.526Z,8.37
2022-12-25T18:39:45.100Z,8.23
2022-12-25T18:42:30.653Z,9.20
2022-12-25T18:44:59.444Z,8.83
2022-12-25T18:47:29.489Z,9.40
2022-12-25T18:49:58.795Z,9.03
2022-12-25T18:52:48.251Z,9.33
2022-12-25T18:55:17.701Z,9.67
2022-12-25T18:57:48.113Z,9.87
2022-12-25T19:00:17.291Z,10.00
2022-12-25T19:02:55.439Z,9.87
2022-12-25T19:05:28.722Z,9.87
2022-12-25T19:07:57.586Z,9.30
2022-12-25T19:10:26.294Z,10.20
2022-12-25T19:12:57.003Z,9.63
2022-12-25T19:15:28.406Z,10.03
2022-12-25T19:17:58.858Z,10.20
2022-12-25T19:20:30.027Z,10.00
2022-12-25T19:22:58.848Z,10.40
2022-12-25T19:25:33.126Z,10.47
2022-12-25T19:28:02.248Z,10.10
2022-12-25T19:30:31.612Z,10.90
2022-12-25T19:33:10.077Z,10.07
2022-12-25T19:35:45.729Z,10.53
2022-12-25T19:38:16.816Z,11.23
2022-12-25T19:41:02.530Z,10.80
2022-12-25T19:43:35.272Z,11.20
2022-12-25T19:46:06.431Z,11.17
2022-12-25T19:48:38.100Z,11.27
2022-12-25T19:51:18.681Z,12.77
2022-12-25T19:53:48.826Z,11.73
2022-12-25T19:56:18.464Z,11.47
2022-12-25T19:58:48.853Z,10.70
2022-12-25T20:01:22.337Z,12.73
2022-12-25T20:04:00.249Z,11.97
2022-12-25T20:06:30.929Z,12.80
2022-12-25T20:09:02.631Z,12.57
2022-12-25T20:11:34.275Z,11.77
2022-12-25T20:16:51.257Z,12.10
2022-12-25T20:19:22.145Z,11.03
2022-12-25T20:21:53.700Z,11.17
2022-12-25T20:24:34.743Z,12.00
2022-12-25T20:27:07.357Z,11.67
2022-12-25T20:29:37.664Z,12.37
2022-12-25T20:32:07.333Z,12.70
2022-12-25T20:34:39.254Z,12.83
2022-12-25T20:37:09.298Z,12.00
2022-12-25T20:39:43.877Z,12.30
2022-12-25T20:42:13.541Z,11.93
2022-12-25T20:44:42.091Z,11.80
2022-12-25T20:47:12.208Z,12.13
2022-12-25T20:49:44.255Z,12.27
2022-12-25T20:52:15.885Z,11.47
2022-12-25T20:54:49.999Z,12.33
2022-12-25T20:57:20.752Z,11.77
2022-12-25T20:59:52.634Z,11.23
2022-12-25T21:02:34.136Z,11.83
2022-12-25T21:05:16.893Z,12.90
2022-12-25T21:07:47.688Z,12.60
2022-12-25T21:10:17.728Z,12.77
2022-12-25T21:12:48.367Z,13.20
2022-12-25T21:15:17.892Z,12.70
2022-12-25T21:17:46.152Z,12.40
2022-12-25T21:20:19.207Z,12.20
2022-12-25T21:22:49.389Z,12.27
2022-12-25T21:25:19.148Z,11.90
2022-12-25T21:27:49.948Z,11.93
2022-12-25T21:30:19.083Z,11.80
2022-12-25T21:33:05.317Z,11.80
2022-12-25T21:35:39.681Z,12.27
2022-12-25T21:38:08.654Z,11.37
2022-12-25T21:40:38.627Z,12.80
2022-12-25T21:43:11.327Z,11.53
2022-12-25T21:45:39.899Z,11.10
2022-12-25T21:48:08.585Z,12.23
2022-12-25T21:50:58.129Z,11.70
2022-12-25T21:53:31.325Z,11.67
2022-12-25T21:56:02.735Z,12.53
2022-12-25T21:58:34.764Z,11.57
2022-12-25T22:01:04.696Z,12.27
2022-12-25T22:03:41.166Z,11.20
2022-12-25T22:06:30.121Z,11.10
2022-12-25T22:09:02.561Z,10.67
2022-12-25T22:11:49.237Z,11.13
2022-12-25T22:14:51.325Z,11.37
2022-12-25T22:17:42.378Z,10.67
2022-12-25T22:20:26.914Z,10.17
2022-12-25T22:22:59.376Z,10.83
2022-12-25T22:25:32.032Z,10.77
2022-12-25T22:28:03.990Z,10.80
2022-12-25T22:33:23.059Z,10.13
2022-12-25T22:36:02.327Z,10.57
2022-12-25T22:39:00.742Z,9.57
2022-12-25T22:41:37.737Z,9.67
2022-12-25T22:44:18.271Z,9.67
2022-12-25T22:46:51.541Z,9.47
2022-12-25T22:49:21.074Z,10.27
2022-12-25T22:51:52.289Z,10.87
2022-12-25T22:54:26.405Z,9.47
2022-12-25T22:56:55.100Z,10.47
2022-12-25T22:59:24.771Z,9.40
2022-12-25T23:01:54.154Z,9.83
2022-12-25T23:04:25.952Z,9.27
2022-12-25T23:06:55.022Z,8.50
2022-12-25T23:09:28.186Z,8.07
2022-12-25T23:11:58.162Z,7.63
2022-12-25T23:14:39.504Z,7.67
2022-12-25T23:17:29.964Z,7.73
2022-12-25T23:20:17.045Z,8.17
2022-12-25T23:23:04.097Z,7.30
2022-12-25T23:26:14.001Z,8.30
2022-12-25T23:29:05.314Z,7.77
2022-12-25T23:31:41.977Z,7.43
2022-12-25T23:34:13.276Z,7.10
2022-12-25T23:36:43.975Z,7.33
2022-12-25T23:39:15.257Z,7.57
2022-12-25T23:42:03.737Z,7.53
2022-12-25T23:44:40.475Z,7.70
2022-12-25T23:47:11.107Z,8.00
2022-12-25T23:49:41.842Z,6.97
2022-12-25T23:52:20.419Z,8.10
2022-12-25T23:54:53.386Z,7.20
2022-12-25T23:57:25.099Z,7.60
2022-12-25T23:59:54.378Z,7.70
